createdAt,value
2017-08-08T00:00:41.895Z,81.10
2017-08-08T00:03:10.070Z,81.00
2017-08-08T00:05:38.203Z,80.90
2017-08-08T00:08:06.324Z,80.90
2017-08-08T00:10:34.468Z,81.10
2017-08-08T00:13:03.361Z,81.10
2017-08-08T00:15:32.289Z,81.90
2017-08-08T00:18:00.424Z,81.20
2017-08-08T00:20:29.466Z,81.40
2017-08-08T00:22:57.588Z,81.50
2017-08-08T00:25:26.481Z,81.50
2017-08-08T00:27:54.633Z,81.50
2017-08-08T00:30:22.758Z,81.40
2017-08-08T00:32:50.905Z,81.30
2017-08-08T00:35:19.048Z,81.40
2017-08-08T00:37:48.094Z,81.00
2017-08-08T00:40:16.222Z,81.40
2017-08-08T00:42:45.105Z,81.60
2017-08-08T00:45:14.034Z,81.70
2017-08-08T00:47:42.190Z,81.70
2017-08-08T00:50:10.346Z,81.50
2017-08-08T00:52:39.238Z,82.00
2017-08-08T00:55:08.154Z,82.00
2017-08-08T00:57:36.282Z,81.90
2017-08-08T01:00:05.231Z,82.70
2017-08-08T01:02:33.366Z,82.00
2017-08-08T01:05:01.494Z,82.10
2017-08-08T01:07:29.660Z,82.20
2017-08-08T01:09:57.799Z,82.10
2017-08-08T01:12:25.958Z,82.10
2017-08-08T01:14:54.077Z,82.10
2017-08-08T01:17:22.211Z,82.10
2017-08-08T01:19:50.370Z,82.10
2017-08-08T01:22:18.489Z,82.10
2017-08-08T01:24:46.788Z,82.10
2017-08-08T01:27:15.681Z,83.00
2017-08-08T01:29:44.568Z,82.30
2017-08-08T01:32:13.506Z,82.70
2017-08-08T01:34:41.641Z,82.30
2017-08-08T01:37:09.809Z,82.30
2017-08-08T01:39:38.697Z,82.60
2017-08-08T01:42:06.830Z,82.50
2017-08-08T01:44:34.980Z,82.60
2017-08-08T01:47:03.109Z,82.50
2017-08-08T01:49:32.054Z,82.60
2017-08-08T01:52:00.181Z,82.50
2017-08-08T01:54:28.298Z,82.60
2017-08-08T01:56:56.463Z,82.70
2017-08-08T01:59:24.615Z,82.70
2017-08-08T02:01:52.791Z,82.60
2017-08-08T02:04:20.927Z,82.60
2017-08-08T02:06:49.089Z,82.70
2017-08-08T02:09:17.209Z,83.40
2017-08-08T02:11:45.385Z,82.80
2017-08-08T02:14:13.521Z,82.70
2017-08-08T02:16:42.591Z,82.90
2017-08-08T02:19:10.718Z,82.90
2017-08-08T02:21:38.853Z,82.90
2017-08-08T02:24:07.043Z,82.90
2017-08-08T02:26:35.165Z,83.00
2017-08-08T02:29:03.430Z,83.00
2017-08-08T02:31:31.551Z,82.90
2017-08-08T02:33:59.673Z,83.00
2017-08-08T02:36:27.844Z,83.10
2017-08-08T02:38:55.992Z,83.40
2017-08-08T02:41:24.257Z,83.60
2017-08-08T02:43:52.377Z,83.60
2017-08-08T02:46:20.497Z,83.60
2017-08-08T02:48:48.678Z,83.50
2017-08-08T02:51:16.798Z,83.50
2017-08-08T02:53:44.955Z,83.60
2017-08-08T02:56:13.086Z,83.60
2017-08-08T02:58:41.250Z,83.60
2017-08-08T03:01:09.386Z,83.50
2017-08-08T03:03:38.318Z,84.00
2017-08-08T03:06:06.446Z,83.20
2017-08-08T03:08:34.578Z,83.30
2017-08-08T03:11:02.739Z,83.20
2017-08-08T03:13:30.891Z,83.20
2017-08-08T03:15:59.036Z,83.20
2017-08-08T03:18:27.930Z,83.50
2017-08-08T03:20:56.849Z,83.60
2017-08-08T03:23:24.969Z,83.50
2017-08-08T03:25:53.106Z,83.60
2017-08-08T03:28:21.267Z,83.50
2017-08-08T03:30:49.395Z,83.40
2017-08-08T03:33:17.554Z,83.40
2017-08-08T03:35:45.676Z,83.40
2017-08-08T03:38:13.854Z,83.40
2017-08-08T03:40:41.973Z,83.40
2017-08-08T03:43:10.102Z,83.50
2017-08-08T03:45:38.248Z,83.60
2017-08-08T03:48:06.369Z,83.80
2017-08-08T03:50:34.537Z,83.90
2017-08-08T03:53:02.669Z,83.90
2017-08-08T03:55:30.785Z,83.80
2017-08-08T03:57:58.951Z,84.00
2017-08-08T04:00:27.082Z,84.10
2017-08-08T04:02:55.237Z,84.10
2017-08-08T04:05:24.134Z,83.80
2017-08-08T04:07:52.307Z,83.90
2017-08-08T04:10:20.426Z,83.90
2017-08-08T04:12:48.553Z,84.10
2017-08-08T04:15:16.718Z,84.10
2017-08-08T04:17:44.854Z,84.30
2017-08-08T04:20:13.018Z,84.50
2017-08-08T04:22:41.154Z,84.60
2017-08-08T04:25:09.310Z,84.80
2017-08-08T04:27:37.447Z,84.90
2017-08-08T04:30:05.566Z,85.20
2017-08-08T04:32:33.732Z,85.20
2017-08-08T04:35:01.975Z,85.00
2017-08-08T04:37:30.173Z,85.00
2017-08-08T04:39:58.305Z,85.00
2017-08-08T04:42:26.538Z,84.80
2017-08-08T04:44:54.714Z,84.60
2017-08-08T04:47:22.902Z,84.50
2017-08-08T04:49:51.071Z,84.40
2017-08-08T04:52:19.193Z,84.20
2017-08-08T04:54:47.359Z,84.10
2017-08-08T04:57:15.503Z,84.10
2017-08-08T04:59:43.637Z,84.00
2017-08-08T05:02:11.798Z,83.90
2017-08-08T05:04:39.922Z,84.10
2017-08-08T05:07:08.074Z,84.30
2017-08-08T05:09:36.193Z,84.30
2017-08-08T05:12:04.358Z,84.30
2017-08-08T05:14:32.495Z,84.20
2017-08-08T05:17:00.683Z,84.30
2017-08-08T05:19:28.800Z,84.60
2017-08-08T05:21:56.927Z,84.00
2017-08-08T05:24:25.085Z,83.30
2017-08-08T05:26:53.239Z,82.90
2017-08-08T05:29:21.394Z,82.50
2017-08-08T05:31:49.525Z,82.20
2017-08-08T05:34:17.706Z,81.60
2017-08-08T05:36:45.870Z,81.80
2017-08-08T05:39:14.757Z,80.70
2017-08-08T05:41:43.677Z,80.00
2017-08-08T05:44:11.911Z,79.90
2017-08-08T05:46:40.184Z,80.00
2017-08-08T05:49:08.319Z,79.30
2017-08-08T05:51:36.641Z,78.60
2017-08-08T05:54:04.774Z,78.00
2017-08-08T05:56:32.894Z,77.50
2017-08-08T05:59:01.071Z,76.90
2017-08-08T06:01:29.189Z,76.60
2017-08-08T06:03:57.355Z,76.60
2017-08-08T06:06:25.503Z,76.20
2017-08-08T06:08:53.698Z,76.00
2017-08-08T06:11:21.817Z,75.70
2017-08-08T06:13:50.023Z,75.30
2017-08-08T06:16:18.249Z,73.50
2017-08-08T06:18:46.368Z,73.70
2017-08-08T06:21:14.527Z,73.90
2017-08-08T06:23:42.656Z,72.70
2017-08-08T06:26:10.821Z,71.60
2017-08-08T06:28:39.730Z,72.10
2017-08-08T06:31:08.621Z,71.40
2017-08-08T06:33:37.541Z,70.10
2017-08-08T06:36:05.776Z,70.10
2017-08-08T06:38:33.941Z,69.40
2017-08-08T06:41:02.057Z,69.50
2017-08-08T06:43:30.187Z,69.60
2017-08-08T06:45:59.109Z,69.40
2017-08-08T06:48:27.239Z,69.10
2017-08-08T06:50:55.384Z,68.00
2017-08-08T06:53:23.505Z,67.30
2017-08-08T06:55:51.753Z,66.90
2017-08-08T06:58:19.874Z,67.40
2017-08-08T07:00:48.110Z,67.10
2017-08-08T07:03:17.043Z,65.60
2017-08-08T07:05:45.157Z,65.50
2017-08-08T07:08:14.206Z,65.40
2017-08-08T07:10:42.342Z,65.20
2017-08-08T07:13:11.287Z,65.20
2017-08-08T07:15:39.408Z,65.20
2017-08-08T07:18:08.303Z,63.50
2017-08-08T07:20:36.451Z,63.50
2017-08-08T07:23:04.584Z,63.70
2017-08-08T07:25:32.736Z,64.30
2017-08-08T07:28:00.872Z,63.30
2017-08-08T07:30:29.796Z,62.10
2017-08-08T07:32:57.929Z,62.00
2017-08-08T07:35:26.861Z,62.40
2017-08-08T07:37:54.989Z,62.30
2017-08-08T07:40:23.886Z,59.50
2017-08-08T07:42:52.816Z,59.10
2017-08-08T07:45:20.951Z,59.10
2017-08-08T07:47:49.890Z,59.50
2017-08-08T07:50:18.022Z,58.80
2017-08-08T07:52:46.169Z,59.00
2017-08-08T07:55:15.070Z,59.50
2017-08-08T07:57:43.971Z,57.30
2017-08-08T08:00:12.132Z,57.30
2017-08-08T08:02:41.036Z,57.90
2017-08-08T08:05:09.206Z,57.20
2017-08-08T08:07:37.339Z,56.30
2017-08-08T08:10:05.502Z,54.70
2017-08-08T08:12:33.624Z,54.30
2017-08-08T08:15:01.741Z,54.10
2017-08-08T08:17:29.893Z,52.30
2017-08-08T08:19:58.030Z,53.00
2017-08-08T08:22:26.195Z,53.00
2017-08-08T08:24:55.085Z,55.00
2017-08-08T08:27:23.242Z,55.00
2017-08-08T08:29:52.140Z,54.60
2017-08-08T08:32:20.403Z,54.40
2017-08-08T08:34:48.539Z,54.60
2017-08-08T08:37:16.675Z,53.80
2017-08-08T08:39:44.837Z,49.90
2017-08-08T08:42:12.960Z,49.60
2017-08-08T08:44:41.159Z,48.90
2017-08-08T08:47:09.287Z,48.90
2017-08-08T08:49:37.718Z,49.20
2017-08-08T08:52:06.609Z,48.80
2017-08-08T08:54:35.493Z,48.50
2017-08-08T08:57:04.417Z,48.30
2017-08-08T08:59:32.547Z,48.30
2017-08-08T09:02:00.707Z,46.90
2017-08-08T09:04:28.882Z,48.10
2017-08-08T09:06:57.063Z,47.10
2017-08-08T09:09:25.967Z,46.10
2017-08-08T09:11:54.895Z,44.50
2017-08-08T09:14:23.026Z,44.50
2017-08-08T09:16:51.966Z,45.40
2017-08-08T09:19:20.103Z,45.40
2017-08-08T09:21:48.225Z,42.70
2017-08-08T09:24:16.372Z,42.50
2017-08-08T09:26:44.496Z,42.40
2017-08-08T09:29:12.761Z,43.20
2017-08-08T09:31:41.650Z,43.70
2017-08-08T09:34:10.538Z,45.10
2017-08-08T09:36:39.457Z,46.10
2017-08-08T09:39:07.573Z,46.10
2017-08-08T09:41:35.725Z,42.60
2017-08-08T09:44:03.849Z,41.10
2017-08-08T09:46:32.741Z,41.10
2017-08-08T09:49:01.653Z,41.90
2017-08-08T09:51:29.782Z,41.10
2017-08-08T09:53:57.966Z,40.90
2017-08-08T09:56:26.868Z,42.70
2017-08-08T09:58:55.007Z,42.70
2017-08-08T10:01:23.165Z,44.20
2017-08-08T10:03:51.303Z,45.90
2017-08-08T10:06:19.463Z,43.00
2017-08-08T10:08:47.590Z,44.40
2017-08-08T10:11:15.756Z,44.00
2017-08-08T10:13:43.886Z,44.50
2017-08-08T10:16:12.043Z,42.80
2017-08-08T10:18:40.179Z,40.30
2017-08-08T10:21:08.314Z,38.50
2017-08-08T10:23:36.461Z,40.30
2017-08-08T10:26:04.581Z,39.30
2017-08-08T10:28:32.886Z,39.70
2017-08-08T10:31:01.777Z,41.90
2017-08-08T10:33:29.915Z,41.90
2017-08-08T10:35:58.075Z,41.90
2017-08-08T10:38:26.210Z,44.30
2017-08-08T10:40:54.479Z,40.50
2017-08-08T10:43:22.614Z,40.10
2017-08-08T10:45:50.741Z,40.00
2017-08-08T10:48:18.888Z,40.80
2017-08-08T10:50:47.800Z,41.40
2017-08-08T10:53:15.953Z,41.30
2017-08-08T10:55:44.082Z,41.00
2017-08-08T10:58:12.332Z,42.10
2017-08-08T11:00:40.465Z,42.80
2017-08-08T11:03:09.368Z,43.50
2017-08-08T11:05:37.517Z,43.50
2017-08-08T11:08:06.446Z,45.40
2017-08-08T11:10:34.611Z,45.40
2017-08-08T11:13:02.742Z,46.00
2017-08-08T11:15:31.658Z,47.80
2017-08-08T11:17:59.787Z,47.40
2017-08-08T11:20:27.948Z,47.30
2017-08-08T11:22:56.082Z,47.30
2017-08-08T11:25:24.205Z,47.00
2017-08-08T11:27:52.357Z,46.90
2017-08-08T11:30:20.482Z,47.30
2017-08-08T11:32:48.629Z,47.50
2017-08-08T11:35:17.519Z,47.70
2017-08-08T11:37:45.685Z,47.40
2017-08-08T11:40:13.821Z,47.60
2017-08-08T11:42:41.999Z,48.10
2017-08-08T11:45:10.129Z,47.90
2017-08-08T11:47:38.266Z,48.40
2017-08-08T11:50:06.415Z,48.70
2017-08-08T11:52:34.539Z,47.60
2017-08-08T11:55:02.706Z,48.50
2017-08-08T11:57:30.867Z,48.70
2017-08-08T11:59:59.757Z,48.30
2017-08-08T12:02:28.691Z,48.20
2017-08-08T12:04:56.809Z,48.20
2017-08-08T12:07:24.958Z,48.40
2017-08-08T12:09:53.099Z,49.40
2017-08-08T12:12:21.253Z,50.10
2017-08-08T12:14:49.369Z,51.70
2017-08-08T12:17:17.550Z,51.10
2017-08-08T12:19:45.683Z,50.40
2017-08-08T12:22:13.811Z,50.00
2017-08-08T12:24:42.749Z,51.10
2017-08-08T12:27:10.883Z,50.40
2017-08-08T12:29:39.042Z,51.40
2017-08-08T12:32:07.179Z,52.30
2017-08-08T12:34:35.340Z,53.50
2017-08-08T12:37:03.461Z,54.50
2017-08-08T12:39:31.655Z,55.10
2017-08-08T12:41:59.783Z,55.70
2017-08-08T12:44:28.033Z,55.60
2017-08-08T12:46:56.157Z,55.50
2017-08-08T12:49:25.055Z,56.10
2017-08-08T12:51:53.223Z,56.10
2017-08-08T12:54:21.354Z,56.70
2017-08-08T12:56:49.515Z,56.80
2017-08-08T12:59:17.643Z,57.10
2017-08-08T13:01:45.807Z,57.40
2017-08-08T13:04:14.065Z,57.70
2017-08-08T13:06:42.962Z,57.50
2017-08-08T13:09:11.119Z,57.40
2017-08-08T13:11:39.251Z,58.20
2017-08-08T13:14:07.405Z,58.70
2017-08-08T13:16:35.540Z,58.40
2017-08-08T13:19:03.720Z,58.00
2017-08-08T13:21:31.845Z,58.10
2017-08-08T13:23:59.975Z,57.90
2017-08-08T13:26:28.121Z,58.20
2017-08-08T13:28:56.246Z,57.70
2017-08-08T13:31:24.423Z,58.50
2017-08-08T13:33:52.560Z,58.60
2017-08-08T13:36:20.974Z,58.10
2017-08-08T13:38:49.136Z,58.10
2017-08-08T13:41:17.269Z,58.20
2017-08-08T13:43:46.215Z,60.00
2017-08-08T13:46:14.349Z,59.20
2017-08-08T13:48:42.477Z,60.00
2017-08-08T13:51:10.629Z,60.30
2017-08-08T13:53:38.759Z,60.20
2017-08-08T13:56:06.914Z,60.10
2017-08-08T13:58:35.817Z,60.10
2017-08-08T14:01:03.988Z,60.10
2017-08-08T14:03:32.107Z,60.20
2017-08-08T14:06:00.379Z,60.70
2017-08-08T14:08:28.515Z,60.00
2017-08-08T14:10:56.632Z,59.90
2017-08-08T14:13:24.794Z,59.60
2017-08-08T14:15:52.918Z,59.70
2017-08-08T14:18:21.091Z,60.20
2017-08-08T14:20:49.223Z,59.70
2017-08-08T14:23:17.357Z,59.80
2017-08-08T14:25:45.506Z,58.80
2017-08-08T14:28:13.876Z,58.80
2017-08-08T14:30:42.025Z,58.20
2017-08-08T14:33:10.174Z,58.80
2017-08-08T14:35:38.320Z,58.80
2017-08-08T14:38:06.495Z,59.30
2017-08-08T14:40:34.636Z,58.80
2017-08-08T14:43:02.785Z,58.20
2017-08-08T14:45:31.687Z,60.80
2017-08-08T14:47:59.943Z,60.00
2017-08-08T14:50:28.079Z,61.40
2017-08-08T14:52:56.196Z,63.30
2017-08-08T14:55:25.112Z,68.10
2017-08-08T14:57:53.233Z,68.00
2017-08-08T15:00:21.391Z,68.40
2017-08-08T15:02:49.516Z,69.30
2017-08-08T15:05:17.673Z,69.30
2017-08-08T15:07:46.556Z,70.30
2017-08-08T15:10:15.507Z,70.40
2017-08-08T15:12:43.638Z,70.50
2017-08-08T15:15:11.766Z,70.80
2017-08-08T15:17:39.928Z,71.20
2017-08-08T15:20:08.049Z,70.80
2017-08-08T15:22:36.402Z,70.20
2017-08-08T15:25:04.534Z,70.70
2017-08-08T15:27:32.659Z,71.20
2017-08-08T15:30:01.578Z,70.00
2017-08-08T15:32:29.734Z,70.00
2017-08-08T15:34:57.891Z,69.90
2017-08-08T15:37:26.785Z,68.20
2017-08-08T15:39:55.823Z,68.00
2017-08-08T15:42:23.973Z,67.20
2017-08-08T15:44:52.205Z,67.20
2017-08-08T15:47:21.125Z,63.90
2017-08-08T15:49:49.267Z,63.80
2017-08-08T15:52:18.199Z,63.80
2017-08-08T15:54:46.318Z,63.70
2017-08-08T15:57:14.448Z,63.40
2017-08-08T15:59:42.600Z,63.60
2017-08-08T16:02:10.843Z,62.40
2017-08-08T16:04:39.769Z,63.40
2017-08-08T16:07:07.899Z,63.40
2017-08-08T16:09:36.049Z,63.40
2017-08-08T16:12:04.177Z,63.40
2017-08-08T16:14:32.420Z,63.90
2017-08-08T16:17:01.415Z,62.40
2017-08-08T16:19:30.441Z,61.80
2017-08-08T16:21:58.563Z,61.80
2017-08-08T16:24:26.692Z,63.60
2017-08-08T16:26:54.855Z,65.00
2017-08-08T16:29:22.995Z,66.70
2017-08-08T16:31:51.925Z,68.90
2017-08-08T16:34:20.054Z,68.90
2017-08-08T16:36:48.219Z,69.50
2017-08-08T16:39:16.366Z,70.60
2017-08-08T16:41:44.539Z,71.10
2017-08-08T16:44:12.673Z,71.50
2017-08-08T16:46:40.795Z,72.90
2017-08-08T16:49:08.955Z,73.80
2017-08-08T16:51:37.076Z,74.90
2017-08-08T16:54:05.240Z,76.30
2017-08-08T16:56:33.356Z,76.50
2017-08-08T16:59:01.482Z,78.20
2017-08-08T17:01:29.647Z,78.70
2017-08-08T17:03:58.537Z,79.60
2017-08-08T17:06:26.756Z,79.60
2017-08-08T17:08:54.903Z,79.60
2017-08-08T17:11:23.074Z,80.00
2017-08-08T17:13:51.210Z,80.80
2017-08-08T17:16:20.111Z,80.20
2017-08-08T17:18:48.279Z,80.20
2017-08-08T17:21:17.183Z,81.30
2017-08-08T17:23:45.347Z,81.20
2017-08-08T17:26:14.229Z,80.70
2017-08-08T17:28:42.377Z,80.70
2017-08-08T17:31:10.496Z,81.40
2017-08-08T17:33:38.668Z,81.20
2017-08-08T17:36:06.798Z,81.60
2017-08-08T17:38:34.932Z,81.50
2017-08-08T17:41:03.101Z,82.10
2017-08-08T17:43:31.238Z,82.00
2017-08-08T17:45:59.403Z,82.00
2017-08-08T17:48:27.534Z,82.30
2017-08-08T17:50:55.666Z,82.20
2017-08-08T17:53:23.904Z,82.40
2017-08-08T17:55:52.794Z,82.70
2017-08-08T17:58:21.739Z,82.30
2017-08-08T18:00:49.879Z,82.30
2017-08-08T18:03:18.005Z,82.30
2017-08-08T18:05:46.170Z,81.90
2017-08-08T18:08:14.297Z,82.30
2017-08-08T18:10:42.467Z,82.40
2017-08-08T18:13:10.602Z,82.30
2017-08-08T18:15:38.753Z,82.50
2017-08-08T18:18:06.875Z,82.20
2017-08-08T18:20:34.993Z,82.50
2017-08-08T18:23:03.160Z,83.00
2017-08-08T18:25:31.291Z,82.30
2017-08-08T18:27:59.449Z,82.20
2017-08-08T18:30:28.346Z,81.80
2017-08-08T18:32:57.244Z,81.80
2017-08-08T18:35:25.411Z,81.80
2017-08-08T18:37:53.534Z,82.70
2017-08-08T18:40:21.700Z,81.60
2017-08-08T18:42:49.841Z,82.00
2017-08-08T18:45:18.020Z,82.20
2017-08-08T18:47:46.217Z,82.00
2017-08-08T18:50:14.428Z,82.30
2017-08-08T18:52:42.628Z,82.40
2017-08-08T18:55:10.781Z,81.70
2017-08-08T18:57:39.731Z,82.00
2017-08-08T19:00:07.956Z,82.00
2017-08-08T19:02:36.198Z,81.50
2017-08-08T19:05:05.147Z,81.40
2017-08-08T19:07:33.365Z,81.40
2017-08-08T19:10:02.388Z,81.40
2017-08-08T19:12:30.652Z,81.30
2017-08-08T19:14:59.214Z,81.00
2017-08-08T19:17:27.486Z,81.20
2017-08-08T19:19:56.168Z,81.30
2017-08-08T19:22:24.436Z,80.70
2017-08-08T19:24:54.583Z,79.40
2017-08-08T19:27:23.866Z,79.40
2017-08-08T19:29:52.841Z,79.40
2017-08-08T19:32:21.594Z,79.50
2017-08-08T19:34:50.217Z,81.00
2017-08-08T19:37:20.206Z,82.50
2017-08-08T19:39:49.688Z,83.80
2017-08-08T19:42:20.186Z,84.30
2017-08-08T19:44:48.998Z,84.30
2017-08-08T19:47:17.940Z,85.40
2017-08-08T19:49:46.924Z,85.70
2017-08-08T19:52:16.698Z,85.70
2017-08-08T19:54:46.246Z,85.70
2017-08-08T19:57:15.809Z,85.50
2017-08-08T19:59:45.712Z,85.30
2017-08-08T20:02:16.522Z,85.80
2017-08-08T20:04:45.383Z,85.80
2017-08-08T20:07:14.652Z,85.90
2017-08-08T20:09:44.493Z,86.10
2017-08-08T20:12:14.120Z,86.60
2017-08-08T20:14:42.679Z,86.70
2017-08-08T20:17:12.260Z,86.60
2017-08-08T20:19:41.071Z,86.00
2017-08-08T20:22:09.855Z,86.00
2017-08-08T20:24:38.060Z,85.80
2017-08-08T20:27:06.299Z,86.10
2017-08-08T20:29:35.193Z,86.50
2017-08-08T20:32:04.124Z,86.60
2017-08-08T20:34:32.305Z,86.60
2017-08-08T20:37:01.198Z,87.00
2017-08-08T20:39:29.522Z,87.00
2017-08-08T20:41:58.453Z,87.00
2017-08-08T20:44:26.681Z,87.60
2017-08-08T20:46:55.673Z,87.00
2017-08-08T20:49:24.574Z,86.10
2017-08-08T20:51:53.502Z,85.40
2017-08-08T20:54:21.638Z,85.40
2017-08-08T20:56:50.719Z,85.30
2017-08-08T20:59:19.617Z,85.30
2017-08-08T21:01:48.515Z,86.00
2017-08-08T21:04:16.678Z,86.00
2017-08-08T21:06:45.569Z,86.00
2017-08-08T21:09:14.493Z,85.50
2017-08-08T21:11:42.717Z,85.50
2017-08-08T21:14:11.708Z,85.40
2017-08-08T21:16:40.629Z,86.30
2017-08-08T21:19:08.766Z,86.30
2017-08-08T21:21:36.926Z,86.30
2017-08-08T21:24:05.054Z,86.60
2017-08-08T21:26:33.202Z,87.70
2017-08-08T21:29:01.331Z,86.90
2017-08-08T21:31:29.618Z,87.30
2017-08-08T21:33:57.737Z,87.40
2017-08-08T21:36:25.867Z,87.40
2017-08-08T21:38:54.026Z,87.50
2017-08-08T21:41:22.158Z,87.70
2017-08-08T21:43:50.313Z,88.00
2017-08-08T21:46:18.443Z,88.30
2017-08-08T21:48:46.610Z,88.40
2017-08-08T21:51:14.743Z,88.70
2017-08-08T21:53:42.871Z,88.40
2017-08-08T21:56:11.797Z,88.50
2017-08-08T21:58:39.918Z,88.40
2017-08-08T22:01:08.294Z,88.80
2017-08-08T22:03:36.429Z,88.50
2017-08-08T22:06:04.563Z,87.50
2017-08-08T22:08:33.478Z,87.90
2017-08-08T22:11:01.601Z,87.90
2017-08-08T22:13:29.766Z,88.50
2017-08-08T22:15:57.894Z,87.90
2017-08-08T22:18:26.298Z,87.60
2017-08-08T22:20:54.420Z,88.10
2017-08-08T22:23:22.538Z,87.90
2017-08-08T22:25:50.688Z,87.60
2017-08-08T22:28:18.810Z,87.90
2017-08-08T22:30:46.987Z,88.40
2017-08-08T22:33:15.886Z,88.80
2017-08-08T22:35:44.768Z,89.00
2017-08-08T22:38:13.687Z,89.10
2017-08-08T22:40:41.823Z,89.80
2017-08-08T22:43:10.758Z,88.10
2017-08-08T22:45:38.883Z,88.10
2017-08-08T22:48:07.819Z,88.60
2017-08-08T22:50:35.947Z,88.20
2017-08-08T22:53:04.847Z,87.80
2017-08-08T22:55:33.774Z,88.00
2017-08-08T22:58:01.894Z,88.00
2017-08-08T23:00:30.059Z,88.20
2017-08-08T23:02:59.157Z,88.40
2017-08-08T23:05:27.323Z,88.40
2017-08-08T23:07:55.440Z,88.40
2017-08-08T23:10:23.566Z,88.40
2017-08-08T23:12:51.716Z,88.60
2017-08-08T23:15:19.851Z,88.70
2017-08-08T23:17:48.015Z,88.60
2017-08-08T23:20:16.137Z,88.40
2017-08-08T23:22:44.273Z,88.40
2017-08-08T23:25:12.415Z,88.40
2017-08-08T23:27:40.534Z,88.50
2017-08-08T23:30:08.695Z,88.40
2017-08-08T23:32:36.838Z,88.40
2017-08-08T23:35:04.984Z,88.20
2017-08-08T23:37:37.925Z,88.20
2017-08-08T23:40:06.091Z,88.30
2017-08-08T23:42:34.209Z,88.30
2017-08-08T23:45:02.381Z,88.30
2017-08-08T23:47:31.290Z,88.60
2017-08-08T23:50:00.176Z,88.50
2017-08-08T23:52:29.102Z,88.40
2017-08-08T23:54:57.241Z,88.30
2017-08-08T23:57:25.390Z,88.50
2017-08-08T23:59:53.523Z,88.70
